Glendon, Iowa
Current Conditions -  °F | °C
As of 3:15 PM on Tuesday 27 Jan 2015 (Local Time) from KADU Reporting Station
Clear Clear  
Wind Chill: 44°   Ceiling: Unl
Heat Index: 48°   Visibility: 10mi
Dew Point: 36°   Wind: 9mph
Humidity: 62%   Direction: 140°SE
Pressure: 30.09"   Gusts: NA
Location:  41.5558°N, 94.4199°W
Report Text: KADU 272115Z AUTO 14008KT 10SM CLR 09/02 A3009 RMK AO2
Loading
Personal Weather Stations






























Interactive Weather Map New forecast layout! Learn more

10-Day Weather Forecast

Advertisements
Track Severe Weather on mobile